sensor_id;sensor_type;location;lat;lon;timestamp;P1;durP1;ratioP1;P2;durP2;ratioP2
16669;SDS011;8448;52.034;5.158;2022-09-09T00:00:24;3.10;;;2.08;;
16669;SDS011;8448;52.034;5.158;2022-09-09T00:02:57;4.28;;;2.40;;
16669;SDS011;8448;52.034;5.158;2022-09-09T00:05:29;2.95;;;2.42;;
16669;SDS011;8448;52.034;5.158;2022-09-09T00:08:01;4.55;;;2.50;;
16669;SDS011;8448;52.034;5.158;2022-09-09T00:10:30;3.00;;;2.40;;
16669;SDS011;8448;52.034;5.158;2022-09-09T00:13:01;4.45;;;2.15;;
16669;SDS011;8448;52.034;5.158;2022-09-09T00:15:37;2.83;;;2.30;;
16669;SDS011;8448;52.034;5.158;2022-09-09T00:18:11;4.63;;;2.80;;
16669;SDS011;8448;52.034;5.158;2022-09-09T00:20:43;5.25;;;2.65;;
16669;SDS011;8448;52.034;5.158;2022-09-09T00:23:14;4.57;;;2.78;;
16669;SDS011;8448;52.034;5.158;2022-09-09T00:25:46;3.50;;;2.60;;
16669;SDS011;8448;52.034;5.158;2022-09-09T00:28:20;5.18;;;2.45;;
16669;SDS011;8448;52.034;5.158;2022-09-09T00:30:51;4.57;;;3.10;;
16669;SDS011;8448;52.034;5.158;2022-09-09T00:33:22;4.65;;;2.80;;
16669;SDS011;8448;52.034;5.158;2022-09-09T00:35:51;3.75;;;2.60;;
16669;SDS011;8448;52.034;5.158;2022-09-09T00:38:20;5.72;;;2.45;;
16669;SDS011;8448;52.034;5.158;2022-09-09T00:40:51;5.10;;;2.53;;
16669;SDS011;8448;52.034;5.158;2022-09-09T00:43:24;4.47;;;2.90;;
16669;SDS011;8448;52.034;5.158;2022-09-09T00:48:53;3.92;;;2.70;;
16669;SDS011;8448;52.034;5.158;2022-09-09T00:51:26;6.13;;;3.00;;
16669;SDS011;8448;52.034;5.158;2022-09-09T00:54:06;4.97;;;3.40;;
16669;SDS011;8448;52.034;5.158;2022-09-09T00:56:41;6.18;;;3.30;;
16669;SDS011;8448;52.034;5.158;2022-09-09T00:59:16;3.88;;;2.63;;
16669;SDS011;8448;52.034;5.158;2022-09-09T01:01:51;5.95;;;3.58;;
16669;SDS011;8448;52.034;5.158;2022-09-09T01:04:21;8.00;;;3.30;;
16669;SDS011;8448;52.034;5.158;2022-09-09T01:06:53;6.30;;;3.72;;
16669;SDS011;8448;52.034;5.158;2022-09-09T01:09:32;4.97;;;3.20;;
16669;SDS011;8448;52.034;5.158;2022-09-09T01:12:07;6.90;;;3.75;;
16669;SDS011;8448;52.034;5.158;2022-09-09T01:14:40;6.70;;;3.47;;
16669;SDS011;8448;52.034;5.158;2022-09-09T01:17:11;5.67;;;3.70;;
16669;SDS011;8448;52.034;5.158;2022-09-09T01:19:53;4.93;;;3.33;;
16669;SDS011;8448;52.034;5.158;2022-09-09T01:22:27;6.00;;;3.30;;
16669;SDS011;8448;52.034;5.158;2022-09-09T01:25:15;6.55;;;4.07;;
16669;SDS011;8448;52.034;5.158;2022-09-09T01:28:09;5.55;;;3.85;;
16669;SDS011;8448;52.034;5.158;2022-09-09T01:30:38;5.93;;;3.88;;
16669;SDS011;8448;52.034;5.158;2022-09-09T01:33:10;4.55;;;3.40;;
16669;SDS011;8448;52.034;5.158;2022-09-09T01:35:42;6.03;;;4.10;;
16669;SDS011;8448;52.034;5.158;2022-09-09T01:38:12;3.83;;;3.33;;
16669;SDS011;8448;52.034;5.158;2022-09-09T01:40:41;6.72;;;3.80;;
16669;SDS011;8448;52.034;5.158;2022-09-09T01:43:09;4.85;;;3.63;;
16669;SDS011;8448;52.034;5.158;2022-09-09T01:45:37;7.47;;;3.83;;
16669;SDS011;8448;52.034;5.158;2022-09-09T01:48:06;5.20;;;3.73;;
16669;SDS011;8448;52.034;5.158;2022-09-09T01:50:45;6.07;;;3.77;;
16669;SDS011;8448;52.034;5.158;2022-09-09T01:53:13;4.63;;;4.07;;
16669;SDS011;8448;52.034;5.158;2022-09-09T01:55:44;5.47;;;4.10;;
16669;SDS011;8448;52.034;5.158;2022-09-09T01:58:23;6.30;;;4.60;;
16669;SDS011;8448;52.034;5.158;2022-09-09T02:01:00;7.68;;;4.15;;
16669;SDS011;8448;52.034;5.158;2022-09-09T02:03:32;4.47;;;4.00;;
16669;SDS011;8448;52.034;5.158;2022-09-09T02:06:13;6.57;;;4.67;;
16669;SDS011;8448;52.034;5.158;2022-09-09T02:08:48;6.97;;;4.40;;
16669;SDS011;8448;52.034;5.158;2022-09-09T02:11:17;6.13;;;4.05;;
16669;SDS011;8448;52.034;5.158;2022-09-09T02:13:53;7.77;;;4.47;;
16669;SDS011;8448;52.034;5.158;2022-09-09T02:16:23;7.77;;;3.90;;
16669;SDS011;8448;52.034;5.158;2022-09-09T02:18:54;5.97;;;4.30;;
16669;SDS011;8448;52.034;5.158;2022-09-09T02:21:33;4.47;;;3.65;;
16669;SDS011;8448;52.034;5.158;2022-09-09T02:24:02;8.50;;;4.40;;
16669;SDS011;8448;52.034;5.158;2022-09-09T02:26:37;5.23;;;4.37;;
16669;SDS011;8448;52.034;5.158;2022-09-09T02:29:09;5.55;;;4.13;;
16669;SDS011;8448;52.034;5.158;2022-09-09T02:31:39;6.10;;;4.75;;
16669;SDS011;8448;52.034;5.158;2022-09-09T02:34:13;6.53;;;4.73;;
16669;SDS011;8448;52.034;5.158;2022-09-09T02:36:41;6.88;;;4.80;;
16669;SDS011;8448;52.034;5.158;2022-09-09T02:39:09;7.70;;;4.80;;
16669;SDS011;8448;52.034;5.158;2022-09-09T02:41:39;7.03;;;5.13;;
16669;SDS011;8448;52.034;5.158;2022-09-09T02:44:10;9.90;;;5.85;;
16669;SDS011;8448;52.034;5.158;2022-09-09T02:46:46;6.47;;;4.70;;
16669;SDS011;8448;52.034;5.158;2022-09-09T02:49:25;9.33;;;5.10;;
16669;SDS011;8448;52.034;5.158;2022-09-09T02:52:00;6.80;;;5.27;;
16669;SDS011;8448;52.034;5.158;2022-09-09T02:54:31;7.83;;;5.53;;
16669;SDS011;8448;52.034;5.158;2022-09-09T02:57:06;6.90;;;4.90;;
16669;SDS011;8448;52.034;5.158;2022-09-09T02:59:39;9.63;;;5.63;;
16669;SDS011;8448;52.034;5.158;2022-09-09T03:02:07;6.17;;;5.53;;
16669;SDS011;8448;52.034;5.158;2022-09-09T03:04:35;8.17;;;5.73;;
16669;SDS011;8448;52.034;5.158;2022-09-09T03:07:03;7.70;;;5.70;;
16669;SDS011;8448;52.034;5.158;2022-09-09T03:09:31;7.70;;;5.50;;
16669;SDS011;8448;52.034;5.158;2022-09-09T03:11:58;7.23;;;5.00;;
16669;SDS011;8448;52.034;5.158;2022-09-09T03:14:28;6.80;;;5.53;;
16669;SDS011;8448;52.034;5.158;2022-09-09T03:16:56;8.30;;;5.17;;
16669;SDS011;8448;52.034;5.158;2022-09-09T03:19:27;9.13;;;6.20;;
16669;SDS011;8448;52.034;5.158;2022-09-09T03:21:55;7.03;;;5.40;;
16669;SDS011;8448;52.034;5.158;2022-09-09T03:24:24;7.20;;;5.30;;
16669;SDS011;8448;52.034;5.158;2022-09-09T03:26:51;8.02;;;5.38;;
16669;SDS011;8448;52.034;5.158;2022-09-09T03:29:20;7.93;;;5.40;;
16669;SDS011;8448;52.034;5.158;2022-09-09T03:31:49;7.73;;;5.07;;
16669;SDS011;8448;52.034;5.158;2022-09-09T03:34:18;8.25;;;6.28;;
16669;SDS011;8448;52.034;5.158;2022-09-09T03:36:45;7.37;;;5.13;;
16669;SDS011;8448;52.034;5.158;2022-09-09T03:39:14;8.50;;;5.27;;
16669;SDS011;8448;52.034;5.158;2022-09-09T03:41:42;8.07;;;5.17;;
16669;SDS011;8448;52.034;5.158;2022-09-09T03:44:10;7.63;;;5.70;;
16669;SDS011;8448;52.034;5.158;2022-09-09T03:46:40;7.97;;;5.67;;
16669;SDS011;8448;52.034;5.158;2022-09-09T03:49:07;7.00;;;5.70;;
16669;SDS011;8448;52.034;5.158;2022-09-09T03:51:36;8.10;;;5.53;;
16669;SDS011;8448;52.034;5.158;2022-09-09T03:54:05;5.80;;;5.07;;
16669;SDS011;8448;52.034;5.158;2022-09-09T03:56:35;6.90;;;5.00;;
16669;SDS011;8448;52.034;5.158;2022-09-09T03:59:03;8.13;;;5.17;;
16669;SDS011;8448;52.034;5.158;2022-09-09T04:01:30;9.88;;;6.72;;
16669;SDS011;8448;52.034;5.158;2022-09-09T04:03:58;7.57;;;5.20;;
16669;SDS011;8448;52.034;5.158;2022-09-09T04:06:27;6.57;;;5.13;;
16669;SDS011;8448;52.034;5.158;2022-09-09T04:08:57;8.77;;;5.10;;
16669;SDS011;8448;52.034;5.158;2022-09-09T04:11:25;8.53;;;5.07;;
16669;SDS011;8448;52.034;5.158;2022-09-09T04:13:55;7.07;;;4.57;;
16669;SDS011;8448;52.034;5.158;2022-09-09T04:16:22;7.83;;;4.93;;
16669;SDS011;8448;52.034;5.158;2022-09-09T04:18:50;9.00;;;5.30;;
16669;SDS011;8448;52.034;5.158;2022-09-09T04:21:18;8.27;;;4.95;;
16669;SDS011;8448;52.034;5.158;2022-09-09T04:23:46;6.87;;;4.73;;
16669;SDS011;8448;52.034;5.158;2022-09-09T04:26:15;7.83;;;4.90;;
16669;SDS011;8448;52.034;5.158;2022-09-09T04:28:43;7.93;;;5.30;;
16669;SDS011;8448;52.034;5.158;2022-09-09T04:31:16;9.73;;;4.83;;
16669;SDS011;8448;52.034;5.158;2022-09-09T04:33:46;5.90;;;4.38;;
16669;SDS011;8448;52.034;5.158;2022-09-09T04:36:15;6.60;;;4.07;;
16669;SDS011;8448;52.034;5.158;2022-09-09T04:38:43;5.53;;;4.20;;
16669;SDS011;8448;52.034;5.158;2022-09-09T04:41:11;7.75;;;4.90;;
16669;SDS011;8448;52.034;5.158;2022-09-09T04:43:43;7.40;;;4.83;;
16669;SDS011;8448;52.034;5.158;2022-09-09T04:46:12;6.93;;;4.30;;
16669;SDS011;8448;52.034;5.158;2022-09-09T04:48:42;7.72;;;4.93;;
16669;SDS011;8448;52.034;5.158;2022-09-09T04:51:11;6.10;;;4.40;;
16669;SDS011;8448;52.034;5.158;2022-09-09T04:53:40;7.72;;;4.55;;
16669;SDS011;8448;52.034;5.158;2022-09-09T04:56:08;6.50;;;4.20;;
16669;SDS011;8448;52.034;5.158;2022-09-09T04:58:41;7.63;;;3.70;;
16669;SDS011;8448;52.034;5.158;2022-09-09T05:01:11;6.93;;;4.00;;
16669;SDS011;8448;52.034;5.158;2022-09-09T05:03:42;8.80;;;4.40;;
16669;SDS011;8448;52.034;5.158;2022-09-09T05:06:11;6.93;;;4.03;;
16669;SDS011;8448;52.034;5.158;2022-09-09T05:08:40;6.73;;;4.00;;
16669;SDS011;8448;52.034;5.158;2022-09-09T05:11:14;8.67;;;4.10;;
16669;SDS011;8448;52.034;5.158;2022-09-09T05:13:43;6.07;;;3.50;;
16669;SDS011;8448;52.034;5.158;2022-09-09T05:16:11;6.97;;;3.83;;
16669;SDS011;8448;52.034;5.158;2022-09-09T05:18:39;7.93;;;4.20;;
16669;SDS011;8448;52.034;5.158;2022-09-09T05:21:08;7.23;;;3.97;;
16669;SDS011;8448;52.034;5.158;2022-09-09T05:23:35;7.53;;;3.70;;
16669;SDS011;8448;52.034;5.158;2022-09-09T05:26:04;11.33;;;4.07;;
16669;SDS011;8448;52.034;5.158;2022-09-09T05:28:33;7.30;;;3.83;;
16669;SDS011;8448;52.034;5.158;2022-09-09T05:31:03;7.00;;;3.57;;
16669;SDS011;8448;52.034;5.158;2022-09-09T05:36:09;8.13;;;3.87;;
16669;SDS011;8448;52.034;5.158;2022-09-09T05:38:39;11.67;;;4.37;;
16669;SDS011;8448;52.034;5.158;2022-09-09T05:41:07;8.53;;;3.70;;
16669;SDS011;8448;52.034;5.158;2022-09-09T05:43:36;9.40;;;3.97;;
16669;SDS011;8448;52.034;5.158;2022-09-09T05:46:05;8.43;;;4.00;;
16669;SDS011;8448;52.034;5.158;2022-09-09T05:48:34;6.87;;;3.63;;
16669;SDS011;8448;52.034;5.158;2022-09-09T05:51:03;8.30;;;4.03;;
16669;SDS011;8448;52.034;5.158;2022-09-09T05:53:32;7.17;;;3.70;;
16669;SDS011;8448;52.034;5.158;2022-09-09T05:56:00;13.53;;;4.23;;
16669;SDS011;8448;52.034;5.158;2022-09-09T05:58:30;7.80;;;3.80;;
16669;SDS011;8448;52.034;5.158;2022-09-09T06:01:02;7.73;;;3.90;;
16669;SDS011;8448;52.034;5.158;2022-09-09T06:03:33;9.30;;;4.20;;
16669;SDS011;8448;52.034;5.158;2022-09-09T06:06:02;7.20;;;3.70;;
16669;SDS011;8448;52.034;5.158;2022-09-09T06:08:31;9.37;;;3.67;;
16669;SDS011;8448;52.034;5.158;2022-09-09T06:11:02;7.33;;;3.90;;
16669;SDS011;8448;52.034;5.158;2022-09-09T06:13:31;7.80;;;3.87;;
16669;SDS011;8448;52.034;5.158;2022-09-09T06:16:00;9.40;;;4.03;;
16669;SDS011;8448;52.034;5.158;2022-09-09T06:18:29;8.60;;;3.60;;
16669;SDS011;8448;52.034;5.158;2022-09-09T06:20:57;9.73;;;3.67;;
16669;SDS011;8448;52.034;5.158;2022-09-09T06:23:25;10.50;;;3.70;;
16669;SDS011;8448;52.034;5.158;2022-09-09T06:26:00;8.17;;;3.83;;
16669;SDS011;8448;52.034;5.158;2022-09-09T06:28:33;10.67;;;4.20;;
16669;SDS011;8448;52.034;5.158;2022-09-09T06:31:02;10.47;;;4.03;;
16669;SDS011;8448;52.034;5.158;2022-09-09T06:33:33;10.80;;;3.93;;
16669;SDS011;8448;52.034;5.158;2022-09-09T06:36:02;8.38;;;3.60;;
16669;SDS011;8448;52.034;5.158;2022-09-09T06:38:30;11.20;;;3.90;;
16669;SDS011;8448;52.034;5.158;2022-09-09T06:40:58;8.87;;;3.97;;
16669;SDS011;8448;52.034;5.158;2022-09-09T06:43:27;8.85;;;4.07;;
16669;SDS011;8448;52.034;5.158;2022-09-09T06:45:55;8.20;;;3.83;;
16669;SDS011;8448;52.034;5.158;2022-09-09T06:48:24;8.18;;;4.15;;
16669;SDS011;8448;52.034;5.158;2022-09-09T06:51:01;8.88;;;4.00;;
16669;SDS011;8448;52.034;5.158;2022-09-09T06:53:30;9.55;;;3.80;;
16669;SDS011;8448;52.034;5.158;2022-09-09T06:55:59;9.88;;;3.92;;
16669;SDS011;8448;52.034;5.158;2022-09-09T06:58:27;10.13;;;4.18;;
16669;SDS011;8448;52.034;5.158;2022-09-09T07:01:03;11.40;;;4.63;;
16669;SDS011;8448;52.034;5.158;2022-09-09T07:03:32;11.23;;;3.50;;
16669;SDS011;8448;52.034;5.158;2022-09-09T07:06:01;8.18;;;3.67;;
16669;SDS011;8448;52.034;5.158;2022-09-09T07:08:29;9.05;;;3.53;;
16669;SDS011;8448;52.034;5.158;2022-09-09T07:11:01;9.90;;;3.80;;
16669;SDS011;8448;52.034;5.158;2022-09-09T07:13:32;8.88;;;3.78;;
16669;SDS011;8448;52.034;5.158;2022-09-09T07:16:02;8.88;;;3.97;;
16669;SDS011;8448;52.034;5.158;2022-09-09T07:18:31;13.43;;;4.28;;
16669;SDS011;8448;52.034;5.158;2022-09-09T07:21:01;9.65;;;3.53;;
16669;SDS011;8448;52.034;5.158;2022-09-09T07:23:30;10.68;;;3.28;;
16669;SDS011;8448;52.034;5.158;2022-09-09T07:25:57;9.68;;;3.75;;
16669;SDS011;8448;52.034;5.158;2022-09-09T07:28:25;9.32;;;3.55;;
16669;SDS011;8448;52.034;5.158;2022-09-09T07:30:54;9.68;;;4.03;;
16669;SDS011;8448;52.034;5.158;2022-09-09T07:33:22;7.93;;;3.67;;
16669;SDS011;8448;52.034;5.158;2022-09-09T07:35:50;8.85;;;3.53;;
16669;SDS011;8448;52.034;5.158;2022-09-09T07:38:19;8.38;;;3.05;;
16669;SDS011;8448;52.034;5.158;2022-09-09T07:40:48;5.65;;;3.30;;
16669;SDS011;8448;52.034;5.158;2022-09-09T07:43:15;9.52;;;3.92;;
16669;SDS011;8448;52.034;5.158;2022-09-09T07:45:44;8.40;;;3.55;;
16669;SDS011;8448;52.034;5.158;2022-09-09T07:48:12;13.20;;;3.40;;
16669;SDS011;8448;52.034;5.158;2022-09-09T07:50:39;7.32;;;3.05;;
16669;SDS011;8448;52.034;5.158;2022-09-09T07:53:07;7.78;;;3.08;;
16669;SDS011;8448;52.034;5.158;2022-09-09T07:55:36;7.97;;;2.88;;
16669;SDS011;8448;52.034;5.158;2022-09-09T07:58:03;8.73;;;2.90;;
16669;SDS011;8448;52.034;5.158;2022-09-09T08:00:31;9.05;;;3.17;;
16669;SDS011;8448;52.034;5.158;2022-09-09T08:02:59;10.13;;;3.40;;
16669;SDS011;8448;52.034;5.158;2022-09-09T08:05:27;8.07;;;3.40;;
16669;SDS011;8448;52.034;5.158;2022-09-09T08:07:55;12.63;;;3.50;;
16669;SDS011;8448;52.034;5.158;2022-09-09T08:10:22;8.85;;;2.85;;
16669;SDS011;8448;52.034;5.158;2022-09-09T08:12:52;9.07;;;3.40;;
16669;SDS011;8448;52.034;5.158;2022-09-09T08:15:20;13.75;;;3.20;;
16669;SDS011;8448;52.034;5.158;2022-09-09T08:17:47;7.97;;;3.10;;
16669;SDS011;8448;52.034;5.158;2022-09-09T08:20:15;6.75;;;2.85;;
16669;SDS011;8448;52.034;5.158;2022-09-09T08:22:43;6.50;;;2.92;;
16669;SDS011;8448;52.034;5.158;2022-09-09T08:25:11;8.02;;;2.65;;
16669;SDS011;8448;52.034;5.158;2022-09-09T08:27:39;8.73;;;2.95;;
16669;SDS011;8448;52.034;5.158;2022-09-09T08:30:09;5.50;;;2.58;;
16669;SDS011;8448;52.034;5.158;2022-09-09T08:32:37;9.10;;;2.88;;
16669;SDS011;8448;52.034;5.158;2022-09-09T08:35:04;5.82;;;2.60;;
16669;SDS011;8448;52.034;5.158;2022-09-09T08:37:32;9.23;;;3.10;;
16669;SDS011;8448;52.034;5.158;2022-09-09T08:40:00;4.60;;;2.47;;
16669;SDS011;8448;52.034;5.158;2022-09-09T08:42:38;8.60;;;2.88;;
16669;SDS011;8448;52.034;5.158;2022-09-09T08:48:06;8.52;;;2.72;;
16669;SDS011;8448;52.034;5.158;2022-09-09T08:50:41;9.48;;;2.65;;
16669;SDS011;8448;52.034;5.158;2022-09-09T08:53:15;8.32;;;2.50;;
16669;SDS011;8448;52.034;5.158;2022-09-09T08:55:45;6.57;;;2.95;;
16669;SDS011;8448;52.034;5.158;2022-09-09T08:58:19;7.57;;;3.00;;
16669;SDS011;8448;52.034;5.158;2022-09-09T09:00:57;9.57;;;3.00;;
16669;SDS011;8448;52.034;5.158;2022-09-09T09:03:35;14.38;;;3.40;;
16669;SDS011;8448;52.034;5.158;2022-09-09T09:06:12;7.75;;;2.90;;
16669;SDS011;8448;52.034;5.158;2022-09-09T09:08:50;8.93;;;3.08;;
16669;SDS011;8448;52.034;5.158;2022-09-09T09:11:21;8.30;;;3.10;;
16669;SDS011;8448;52.034;5.158;2022-09-09T09:13:50;6.97;;;2.90;;
16669;SDS011;8448;52.034;5.158;2022-09-09T09:16:23;8.95;;;2.78;;
16669;SDS011;8448;52.034;5.158;2022-09-09T09:18:57;11.38;;;2.53;;
16669;SDS011;8448;52.034;5.158;2022-09-09T09:21:31;8.80;;;2.90;;
16669;SDS011;8448;52.034;5.158;2022-09-09T09:24:02;8.57;;;2.70;;
16669;SDS011;8448;52.034;5.158;2022-09-09T09:26:34;6.43;;;2.45;;
16669;SDS011;8448;52.034;5.158;2022-09-09T09:31:38;9.93;;;3.20;;
16669;SDS011;8448;52.034;5.158;2022-09-09T09:34:07;8.30;;;3.28;;
16669;SDS011;8448;52.034;5.158;2022-09-09T09:36:39;7.63;;;3.30;;
16669;SDS011;8448;52.034;5.158;2022-09-09T09:39:08;5.82;;;2.80;;
16669;SDS011;8448;52.034;5.158;2022-09-09T09:41:41;9.13;;;3.15;;
16669;SDS011;8448;52.034;5.158;2022-09-09T09:44:21;7.30;;;3.22;;
16669;SDS011;8448;52.034;5.158;2022-09-09T09:46:52;12.45;;;3.65;;
16669;SDS011;8448;52.034;5.158;2022-09-09T09:49:31;8.85;;;3.10;;
16669;SDS011;8448;52.034;5.158;2022-09-09T09:51:59;7.22;;;3.40;;
16669;SDS011;8448;52.034;5.158;2022-09-09T09:54:29;7.68;;;3.42;;
16669;SDS011;8448;52.034;5.158;2022-09-09T09:57:07;7.13;;;3.22;;
16669;SDS011;8448;52.034;5.158;2022-09-09T09:59:36;7.57;;;3.20;;
16669;SDS011;8448;52.034;5.158;2022-09-09T10:02:18;10.10;;;3.03;;
16669;SDS011;8448;52.034;5.158;2022-09-09T10:05:00;10.23;;;3.63;;
16669;SDS011;8448;52.034;5.158;2022-09-09T10:07:29;10.50;;;3.28;;
16669;SDS011;8448;52.034;5.158;2022-09-09T10:09:58;6.60;;;3.10;;
16669;SDS011;8448;52.034;5.158;2022-09-09T10:12:30;7.80;;;3.22;;
16669;SDS011;8448;52.034;5.158;2022-09-09T10:15:02;6.65;;;2.90;;
16669;SDS011;8448;52.034;5.158;2022-09-09T10:17:49;9.10;;;3.20;;
16669;SDS011;8448;52.034;5.158;2022-09-09T10:20:24;8.23;;;3.35;;
16669;SDS011;8448;52.034;5.158;2022-09-09T10:23:01;9.35;;;3.13;;
16669;SDS011;8448;52.034;5.158;2022-09-09T10:25:38;6.57;;;3.25;;
16669;SDS011;8448;52.034;5.158;2022-09-09T10:31:30;8.40;;;3.13;;
16669;SDS011;8448;52.034;5.158;2022-09-09T10:34:04;7.75;;;3.00;;
16669;SDS011;8448;52.034;5.158;2022-09-09T10:36:38;9.35;;;3.08;;
16669;SDS011;8448;52.034;5.158;2022-09-09T10:39:12;4.30;;;2.60;;
16669;SDS011;8448;52.034;5.158;2022-09-09T10:41:44;4.47;;;2.50;;
16669;SDS011;8448;52.034;5.158;2022-09-09T10:44:25;6.25;;;2.67;;
16669;SDS011;8448;52.034;5.158;2022-09-09T10:50:14;5.35;;;2.85;;
16669;SDS011;8448;52.034;5.158;2022-09-09T10:52:52;5.13;;;2.58;;
16669;SDS011;8448;52.034;5.158;2022-09-09T10:55:27;9.93;;;3.13;;
16669;SDS011;8448;52.034;5.158;2022-09-09T10:58:02;9.60;;;3.00;;
16669;SDS011;8448;52.034;5.158;2022-09-09T11:00:31;6.78;;;3.22;;
16669;SDS011;8448;52.034;5.158;2022-09-09T11:03:04;7.20;;;3.00;;
16669;SDS011;8448;52.034;5.158;2022-09-09T11:05:36;11.43;;;3.05;;
16669;SDS011;8448;52.034;5.158;2022-09-09T11:08:09;5.55;;;2.65;;
16669;SDS011;8448;52.034;5.158;2022-09-09T11:10:39;5.97;;;2.55;;
16669;SDS011;8448;52.034;5.158;2022-09-09T11:13:10;7.03;;;2.50;;
16669;SDS011;8448;52.034;5.158;2022-09-09T11:15:41;4.65;;;2.38;;
16669;SDS011;8448;52.034;5.158;2022-09-09T11:18:11;6.35;;;2.72;;
16669;SDS011;8448;52.034;5.158;2022-09-09T11:20:44;7.85;;;3.00;;
16669;SDS011;8448;52.034;5.158;2022-09-09T11:23:13;5.63;;;2.15;;
16669;SDS011;8448;52.034;5.158;2022-09-09T11:25:43;6.18;;;2.60;;
16669;SDS011;8448;52.034;5.158;2022-09-09T11:28:21;5.75;;;2.50;;
16669;SDS011;8448;52.034;5.158;2022-09-09T11:31:02;5.90;;;2.70;;
16669;SDS011;8448;52.034;5.158;2022-09-09T11:36:37;7.22;;;2.80;;
16669;SDS011;8448;52.034;5.158;2022-09-09T11:39:44;7.13;;;3.00;;
16669;SDS011;8448;52.034;5.158;2022-09-09T11:42:20;5.45;;;3.08;;
16669;SDS011;8448;52.034;5.158;2022-09-09T11:44:49;7.85;;;2.92;;
16669;SDS011;8448;52.034;5.158;2022-09-09T11:47:20;5.85;;;2.95;;
16669;SDS011;8448;52.034;5.158;2022-09-09T11:49:49;8.73;;;3.30;;
16669;SDS011;8448;52.034;5.158;2022-09-09T11:52:23;7.43;;;3.30;;
16669;SDS011;8448;52.034;5.158;2022-09-09T11:54:52;8.88;;;3.55;;
16669;SDS011;8448;52.034;5.158;2022-09-09T11:57:25;6.47;;;3.60;;
16669;SDS011;8448;52.034;5.158;2022-09-09T11:59:57;5.25;;;3.10;;
16669;SDS011;8448;52.034;5.158;2022-09-09T12:02:25;6.20;;;3.10;;
16669;SDS011;8448;52.034;5.158;2022-09-09T12:04:57;7.25;;;3.50;;
16669;SDS011;8448;52.034;5.158;2022-09-09T12:07:34;5.47;;;3.38;;
16669;SDS011;8448;52.034;5.158;2022-09-09T12:10:04;7.03;;;3.30;;
16669;SDS011;8448;52.034;5.158;2022-09-09T12:12:48;6.15;;;3.28;;
16669;SDS011;8448;52.034;5.158;2022-09-09T12:15:19;7.00;;;3.47;;
16669;SDS011;8448;52.034;5.158;2022-09-09T12:17:54;6.55;;;2.65;;
16669;SDS011;8448;52.034;5.158;2022-09-09T12:20:23;5.22;;;3.05;;
16669;SDS011;8448;52.034;5.158;2022-09-09T12:23:12;4.32;;;3.10;;
16669;SDS011;8448;52.034;5.158;2022-09-09T12:25:49;5.60;;;3.22;;
16669;SDS011;8448;52.034;5.158;2022-09-09T12:28:26;6.00;;;3.10;;
16669;SDS011;8448;52.034;5.158;2022-09-09T12:31:02;6.95;;;2.75;;
16669;SDS011;8448;52.034;5.158;2022-09-09T12:33:34;4.80;;;3.15;;
16669;SDS011;8448;52.034;5.158;2022-09-09T12:36:03;7.80;;;3.15;;
16669;SDS011;8448;52.034;5.158;2022-09-09T12:38:34;5.72;;;3.15;;
16669;SDS011;8448;52.034;5.158;2022-09-09T12:41:02;5.30;;;2.90;;
16669;SDS011;8448;52.034;5.158;2022-09-09T12:43:30;6.35;;;3.20;;
16669;SDS011;8448;52.034;5.158;2022-09-09T12:45:59;4.70;;;3.10;;
16669;SDS011;8448;52.034;5.158;2022-09-09T12:48:31;6.10;;;2.80;;
16669;SDS011;8448;52.034;5.158;2022-09-09T12:51:01;5.97;;;3.05;;
16669;SDS011;8448;52.034;5.158;2022-09-09T12:53:44;4.72;;;2.72;;
16669;SDS011;8448;52.034;5.158;2022-09-09T12:56:17;6.00;;;2.67;;
16669;SDS011;8448;52.034;5.158;2022-09-09T12:58:46;5.10;;;2.85;;
16669;SDS011;8448;52.034;5.158;2022-09-09T13:01:18;4.53;;;2.72;;
16669;SDS011;8448;52.034;5.158;2022-09-09T13:03:48;6.50;;;3.00;;
16669;SDS011;8448;52.034;5.158;2022-09-09T13:06:18;6.13;;;2.70;;
16669;SDS011;8448;52.034;5.158;2022-09-09T13:08:49;6.60;;;2.97;;
16669;SDS011;8448;52.034;5.158;2022-09-09T13:11:17;7.90;;;3.67;;
16669;SDS011;8448;52.034;5.158;2022-09-09T13:13:50;6.13;;;3.33;;
16669;SDS011;8448;52.034;5.158;2022-09-09T13:16:19;6.10;;;3.90;;
16669;SDS011;8448;52.034;5.158;2022-09-09T13:18:49;6.97;;;3.42;;
16669;SDS011;8448;52.034;5.158;2022-09-09T13:21:17;6.90;;;4.05;;
16669;SDS011;8448;52.034;5.158;2022-09-09T13:23:49;8.50;;;4.03;;
16669;SDS011;8448;52.034;5.158;2022-09-09T13:26:21;7.60;;;3.90;;
16669;SDS011;8448;52.034;5.158;2022-09-09T13:28:50;6.60;;;3.90;;
16669;SDS011;8448;52.034;5.158;2022-09-09T13:31:20;7.22;;;3.88;;
16669;SDS011;8448;52.034;5.158;2022-09-09T13:33:48;8.25;;;4.10;;
16669;SDS011;8448;52.034;5.158;2022-09-09T13:36:26;5.70;;;3.78;;
16669;SDS011;8448;52.034;5.158;2022-09-09T13:38:57;6.97;;;4.10;;
16669;SDS011;8448;52.034;5.158;2022-09-09T13:41:27;6.03;;;3.80;;
16669;SDS011;8448;52.034;5.158;2022-09-09T13:43:57;5.70;;;3.78;;
16669;SDS011;8448;52.034;5.158;2022-09-09T13:46:25;6.88;;;4.05;;
16669;SDS011;8448;52.034;5.158;2022-09-09T13:48:58;5.82;;;3.80;;
16669;SDS011;8448;52.034;5.158;2022-09-09T13:51:29;6.43;;;4.03;;
16669;SDS011;8448;52.034;5.158;2022-09-09T13:54:03;7.32;;;4.30;;
16669;SDS011;8448;52.034;5.158;2022-09-09T13:58:59;8.55;;;4.40;;
16669;SDS011;8448;52.034;5.158;2022-09-09T14:01:26;6.13;;;3.83;;
16669;SDS011;8448;52.034;5.158;2022-09-09T14:03:54;8.57;;;4.07;;
16669;SDS011;8448;52.034;5.158;2022-09-09T14:06:21;7.55;;;4.32;;
16669;SDS011;8448;52.034;5.158;2022-09-09T14:08:49;7.30;;;3.65;;
16669;SDS011;8448;52.034;5.158;2022-09-09T14:11:18;9.38;;;4.82;;
16669;SDS011;8448;52.034;5.158;2022-09-09T14:13:46;7.80;;;4.35;;
16669;SDS011;8448;52.034;5.158;2022-09-09T14:16:15;9.75;;;4.38;;
16669;SDS011;8448;52.034;5.158;2022-09-09T14:18:42;8.63;;;4.90;;
16669;SDS011;8448;52.034;5.158;2022-09-09T14:21:10;7.78;;;4.28;;
16669;SDS011;8448;52.034;5.158;2022-09-09T14:23:37;7.47;;;4.35;;
16669;SDS011;8448;52.034;5.158;2022-09-09T14:26:05;7.20;;;4.45;;
16669;SDS011;8448;52.034;5.158;2022-09-09T14:28:34;7.07;;;4.60;;
16669;SDS011;8448;52.034;5.158;2022-09-09T14:31:03;7.72;;;4.63;;
16669;SDS011;8448;52.034;5.158;2022-09-09T14:33:30;6.30;;;4.50;;
16669;SDS011;8448;52.034;5.158;2022-09-09T14:35:59;4.55;;;4.05;;
16669;SDS011;8448;52.034;5.158;2022-09-09T14:38:28;4.45;;;2.72;;
16669;SDS011;8448;52.034;5.158;2022-09-09T14:40:56;3.53;;;2.22;;
16669;SDS011;8448;52.034;5.158;2022-09-09T14:43:24;5.00;;;2.00;;
16669;SDS011;8448;52.034;5.158;2022-09-09T14:45:53;3.13;;;1.95;;
16669;SDS011;8448;52.034;5.158;2022-09-09T14:48:20;3.55;;;1.90;;
16669;SDS011;8448;52.034;5.158;2022-09-09T14:50:48;3.15;;;2.10;;
16669;SDS011;8448;52.034;5.158;2022-09-09T14:53:16;3.25;;;1.70;;
16669;SDS011;8448;52.034;5.158;2022-09-09T14:55:43;2.42;;;1.60;;
16669;SDS011;8448;52.034;5.158;2022-09-09T14:58:11;4.05;;;1.67;;
16669;SDS011;8448;52.034;5.158;2022-09-09T15:00:39;4.22;;;1.70;;
16669;SDS011;8448;52.034;5.158;2022-09-09T15:03:08;3.10;;;1.50;;
16669;SDS011;8448;52.034;5.158;2022-09-09T15:05:36;2.67;;;1.45;;
16669;SDS011;8448;52.034;5.158;2022-09-09T15:08:03;2.58;;;1.58;;
16669;SDS011;8448;52.034;5.158;2022-09-09T15:10:30;2.47;;;1.60;;
16669;SDS011;8448;52.034;5.158;2022-09-09T15:12:58;3.10;;;1.73;;
16669;SDS011;8448;52.034;5.158;2022-09-09T15:15:25;2.17;;;1.50;;
16669;SDS011;8448;52.034;5.158;2022-09-09T15:17:52;2.88;;;1.70;;
16669;SDS011;8448;52.034;5.158;2022-09-09T15:20:21;4.30;;;1.90;;
16669;SDS011;8448;52.034;5.158;2022-09-09T15:22:48;2.83;;;1.90;;
16669;SDS011;8448;52.034;5.158;2022-09-09T15:25:17;5.82;;;2.20;;
16669;SDS011;8448;52.034;5.158;2022-09-09T15:27:45;3.15;;;1.80;;
16669;SDS011;8448;52.034;5.158;2022-09-09T15:30:12;6.05;;;2.05;;
16669;SDS011;8448;52.034;5.158;2022-09-09T15:32:39;4.07;;;2.08;;
16669;SDS011;8448;52.034;5.158;2022-09-09T15:35:07;3.70;;;1.80;;
16669;SDS011;8448;52.034;5.158;2022-09-09T15:37:35;4.03;;;1.83;;
16669;SDS011;8448;52.034;5.158;2022-09-09T15:40:03;4.28;;;2.17;;
16669;SDS011;8448;52.034;5.158;2022-09-09T15:42:31;3.60;;;2.05;;
16669;SDS011;8448;52.034;5.158;2022-09-09T15:44:58;3.78;;;2.20;;